createdAt,value
2022-10-07T00:01:04.383Z,6.50
2022-10-07T00:04:01.502Z,6.40
2022-10-07T00:06:59.024Z,6.30
2022-10-07T00:09:55.966Z,6.30
2022-10-07T00:12:53.030Z,6.40
2022-10-07T00:15:50.002Z,6.50
2022-10-07T00:18:50.332Z,6.30
2022-10-07T00:21:47.318Z,6.30
2022-10-07T00:24:44.465Z,6.30
2022-10-07T00:27:41.555Z,6.30
2022-10-07T00:30:38.778Z,6.30
2022-10-07T00:33:39.011Z,6.40
2022-10-07T00:36:37.539Z,6.40
2022-10-07T00:39:34.412Z,6.40
2022-10-07T00:42:33.302Z,6.20
2022-10-07T00:45:30.191Z,6.20
2022-10-07T00:48:31.303Z,6.20
2022-10-07T00:51:29.527Z,6.10
2022-10-07T00:54:26.395Z,5.90
2022-10-07T00:57:27.658Z,6.00
2022-10-07T01:00:24.618Z,5.90
2022-10-07T01:03:21.608Z,5.80
2022-10-07T01:06:18.434Z,5.80
2022-10-07T01:09:15.575Z,5.80
2022-10-07T01:12:37.366Z,5.90
2022-10-07T01:15:43.507Z,6.10
2022-10-07T01:18:55.541Z,5.90
2022-10-07T01:22:25.640Z,5.90
2022-10-07T01:25:59.930Z,5.70
2022-10-07T01:29:04.019Z,5.80
2022-10-07T01:32:34.305Z,5.70
2022-10-07T01:35:36.627Z,5.80
2022-10-07T01:38:36.036Z,5.80
2022-10-07T01:41:34.118Z,5.80
2022-10-07T01:44:31.165Z,5.80
2022-10-07T01:47:28.824Z,5.60
2022-10-07T01:50:29.567Z,5.50
2022-10-07T01:54:04.628Z,5.60
2022-10-07T01:57:47.661Z,5.50
2022-10-07T02:00:58.256Z,5.50
2022-10-07T02:04:09.290Z,5.50
2022-10-07T02:07:41.173Z,5.50
2022-10-07T02:10:48.809Z,5.50
2022-10-07T02:14:17.118Z,5.50
2022-10-07T02:17:20.424Z,5.50
2022-10-07T02:20:19.395Z,5.40
2022-10-07T02:23:20.637Z,5.40
2022-10-07T02:26:22.054Z,5.40
2022-10-07T02:29:21.792Z,5.40
2022-10-07T02:32:23.971Z,5.30
2022-10-07T02:35:40.654Z,5.40
2022-10-07T02:38:39.637Z,5.40
2022-10-07T02:41:51.904Z,5.40
2022-10-07T02:45:38.091Z,5.30
2022-10-07T02:49:01.988Z,5.10
2022-10-07T02:52:13.975Z,5.10
2022-10-07T02:55:22.663Z,5.10
2022-10-07T02:58:22.290Z,5.10
2022-10-07T03:01:26.314Z,5.30
2022-10-07T03:04:23.819Z,5.20
2022-10-07T03:07:20.784Z,5.40
2022-10-07T03:10:17.644Z,5.30
2022-10-07T03:13:15.594Z,5.10
2022-10-07T03:16:12.581Z,5.00
2022-10-07T03:19:10.797Z,5.10
2022-10-07T03:22:08.412Z,5.00
2022-10-07T03:25:05.720Z,5.10
2022-10-07T03:28:02.529Z,5.00
2022-10-07T03:31:08.225Z,5.00
2022-10-07T03:34:05.114Z,4.90
2022-10-07T03:37:01.926Z,5.00
2022-10-07T03:39:58.741Z,4.90
2022-10-07T03:42:55.534Z,4.90
2022-10-07T03:45:52.392Z,5.00
2022-10-07T03:48:49.242Z,4.90
2022-10-07T03:51:46.194Z,4.90
2022-10-07T03:54:43.554Z,5.00
2022-10-07T03:57:58.456Z,5.00
2022-10-07T04:01:08.960Z,4.90
2022-10-07T04:04:07.629Z,5.10
2022-10-07T04:07:04.413Z,5.00
2022-10-07T04:10:01.530Z,5.00
2022-10-07T04:12:58.396Z,4.90
2022-10-07T04:15:55.933Z,5.00
2022-10-07T04:18:56.001Z,5.10
2022-10-07T04:21:52.882Z,4.90
2022-10-07T04:25:09.800Z,4.80
2022-10-07T04:28:14.646Z,4.80
2022-10-07T04:31:11.668Z,4.90
2022-10-07T04:34:09.870Z,4.70
2022-10-07T04:37:06.664Z,4.80
2022-10-07T04:40:04.053Z,4.80
2022-10-07T04:43:19.263Z,4.80
2022-10-07T04:46:16.132Z,4.70
2022-10-07T04:49:13.051Z,4.70
2022-10-07T04:52:10.393Z,4.70
2022-10-07T04:55:07.718Z,4.60
2022-10-07T04:58:06.147Z,4.60
2022-10-07T05:01:09.608Z,4.60
2022-10-07T05:04:06.567Z,4.60
2022-10-07T05:07:03.924Z,4.50
2022-10-07T05:10:00.765Z,4.50
2022-10-07T05:12:57.578Z,4.60
2022-10-07T05:15:58.446Z,4.70
2022-10-07T05:18:57.137Z,4.60
2022-10-07T05:21:54.006Z,4.60
2022-10-07T05:24:50.844Z,4.60
2022-10-07T05:27:53.891Z,4.50
2022-10-07T05:31:00.292Z,4.60
2022-10-07T05:33:57.134Z,4.60
2022-10-07T05:36:53.973Z,4.50
2022-10-07T05:39:51.886Z,4.60
2022-10-07T05:42:49.767Z,4.60
2022-10-07T05:45:47.495Z,4.40
2022-10-07T05:48:52.716Z,4.30
2022-10-07T05:51:50.512Z,4.40
2022-10-07T05:54:47.383Z,4.50
2022-10-07T05:57:44.579Z,4.50
2022-10-07T06:00:55.810Z,4.40
2022-10-07T06:03:57.576Z,4.40
2022-10-07T06:06:54.506Z,4.40
2022-10-07T06:10:09.849Z,4.40
2022-10-07T06:13:13.993Z,4.40
2022-10-07T06:16:10.950Z,4.50
2022-10-07T06:19:22.332Z,4.50
2022-10-07T06:22:19.217Z,4.50
2022-10-07T06:25:16.657Z,4.50
2022-10-07T06:28:14.253Z,4.50
2022-10-07T06:31:17.640Z,4.50
2022-10-07T06:34:14.598Z,4.60
2022-10-07T06:37:11.504Z,4.50
2022-10-07T06:40:09.237Z,4.60
2022-10-07T06:43:06.354Z,4.60
2022-10-07T06:46:06.160Z,4.70
2022-10-07T06:49:03.958Z,4.50
2022-10-07T06:52:00.769Z,4.50
2022-10-07T06:54:59.020Z,4.50
2022-10-07T06:57:55.893Z,4.50
2022-10-07T07:00:54.487Z,4.60
2022-10-07T07:03:51.376Z,4.70
2022-10-07T07:06:48.260Z,4.80
2022-10-07T07:09:45.125Z,4.90
2022-10-07T07:12:41.973Z,5.00
2022-10-07T07:15:41.771Z,5.00
2022-10-07T07:18:38.588Z,5.00
2022-10-07T07:21:40.765Z,5.10
2022-10-07T07:24:38.697Z,5.20
2022-10-07T07:27:36.452Z,5.40
2022-10-07T07:30:34.808Z,5.50
2022-10-07T07:33:31.771Z,5.60
2022-10-07T07:36:30.940Z,5.60
2022-10-07T07:39:27.830Z,5.50
2022-10-07T07:42:24.742Z,5.50
2022-10-07T07:45:22.762Z,5.60
2022-10-07T07:48:19.586Z,5.70
2022-10-07T07:51:17.608Z,5.80
2022-10-07T07:54:15.372Z,5.70
2022-10-07T07:57:12.288Z,5.80
2022-10-07T08:00:11.580Z,5.90
2022-10-07T08:03:08.428Z,6.20
2022-10-07T08:06:07.392Z,6.70
2022-10-07T08:09:04.433Z,7.10
2022-10-07T08:12:02.193Z,7.50
2022-10-07T08:14:59.103Z,8.00
2022-10-07T08:17:55.903Z,8.80
2022-10-07T08:20:58.438Z,9.50
2022-10-07T08:23:57.427Z,10.10
2022-10-07T08:26:54.503Z,11.00
2022-10-07T08:29:51.316Z,11.60
2022-10-07T08:32:48.607Z,11.70
2022-10-07T08:36:00.068Z,12.00
2022-10-07T08:38:57.316Z,12.00
2022-10-07T08:42:13.455Z,12.20
2022-10-07T08:45:31.728Z,11.70
2022-10-07T08:48:36.347Z,11.00
2022-10-07T08:51:39.121Z,10.60
2022-10-07T08:54:35.989Z,10.50
2022-10-07T08:57:43.834Z,10.60
2022-10-07T09:01:01.795Z,11.30
2022-10-07T09:04:23.594Z,11.70
2022-10-07T09:07:48.092Z,12.80
2022-10-07T09:10:50.076Z,13.30
2022-10-07T09:13:56.358Z,13.10
2022-10-07T09:16:58.491Z,13.10
2022-10-07T09:20:01.194Z,13.50
2022-10-07T09:22:58.858Z,13.90
2022-10-07T09:25:56.223Z,13.90
2022-10-07T09:28:53.096Z,14.00
2022-10-07T09:31:50.117Z,14.10
2022-10-07T09:34:47.580Z,14.00
2022-10-07T09:38:02.386Z,13.60
2022-10-07T09:41:32.132Z,13.30
2022-10-07T09:44:29.391Z,13.60
2022-10-07T09:47:32.187Z,14.10
2022-10-07T09:50:38.337Z,14.40
2022-10-07T09:53:35.158Z,14.10
2022-10-07T09:56:45.253Z,13.80
2022-10-07T09:59:42.090Z,14.10
2022-10-07T10:02:48.699Z,14.30
2022-10-07T10:05:59.762Z,14.80
2022-10-07T10:08:57.574Z,15.00
2022-10-07T10:12:14.116Z,14.90
2022-10-07T10:15:45.658Z,15.10
2022-10-07T10:19:14.413Z,15.30
2022-10-07T10:22:29.518Z,15.60
2022-10-07T10:26:14.069Z,15.70
2022-10-07T10:29:32.495Z,15.70
2022-10-07T10:32:53.913Z,15.70
2022-10-07T10:36:06.547Z,16.00
2022-10-07T10:39:30.045Z,16.40
2022-10-07T10:43:05.156Z,16.40
2022-10-07T10:46:20.324Z,16.10
2022-10-07T10:49:34.984Z,16.30
2022-10-07T10:53:01.588Z,16.40
2022-10-07T10:56:27.061Z,16.40
2022-10-07T10:59:56.975Z,16.10
2022-10-07T11:03:26.572Z,15.80
2022-10-07T11:06:28.452Z,15.90
2022-10-07T11:09:43.575Z,15.70
2022-10-07T11:12:46.609Z,15.60
2022-10-07T11:15:49.458Z,15.60
2022-10-07T11:19:28.937Z,15.90
2022-10-07T11:22:39.031Z,16.50
2022-10-07T11:25:47.722Z,16.90
2022-10-07T11:28:46.397Z,17.30
2022-10-07T11:32:01.458Z,17.40
2022-10-07T11:35:23.710Z,17.20
2022-10-07T11:38:36.401Z,17.10
2022-10-07T11:41:45.432Z,17.50
2022-10-07T11:45:06.703Z,17.90
2022-10-07T11:48:12.779Z,17.90
2022-10-07T11:51:19.027Z,17.90
2022-10-07T11:54:20.311Z,18.00
2022-10-07T11:57:25.984Z,18.00
2022-10-07T12:00:37.022Z,18.20
2022-10-07T12:03:33.953Z,18.20
2022-10-07T12:06:30.983Z,18.40
2022-10-07T12:10:18.042Z,18.40
2022-10-07T12:13:14.767Z,18.30
2022-10-07T12:16:23.707Z,18.40
2022-10-07T12:19:23.906Z,18.30
2022-10-07T12:22:21.118Z,18.00
2022-10-07T12:25:32.421Z,18.10
2022-10-07T12:28:34.823Z,18.30
2022-10-07T12:31:31.709Z,18.40
2022-10-07T12:34:41.099Z,18.30
2022-10-07T12:37:40.913Z,18.50
2022-10-07T12:40:38.405Z,18.50
2022-10-07T12:43:45.126Z,18.50
2022-10-07T12:46:50.864Z,18.60
2022-10-07T12:50:07.660Z,18.60
2022-10-07T12:53:04.681Z,18.30
2022-10-07T12:56:01.708Z,18.00
2022-10-07T12:59:49.002Z,18.10
2022-10-07T13:03:23.161Z,18.70
2022-10-07T13:06:54.026Z,18.40
2022-10-07T13:09:59.629Z,18.40
2022-10-07T13:13:11.901Z,18.30
2022-10-07T13:16:15.270Z,18.60
2022-10-07T13:19:50.308Z,18.30
2022-10-07T13:22:49.369Z,18.60
2022-10-07T13:25:53.193Z,18.50
2022-10-07T13:28:53.780Z,18.90
2022-10-07T13:32:09.563Z,18.60
2022-10-07T13:35:36.262Z,18.20
2022-10-07T13:38:36.197Z,18.10
2022-10-07T13:41:33.109Z,18.50
2022-10-07T13:44:32.514Z,18.60
2022-10-07T13:47:36.512Z,18.80
2022-10-07T13:50:34.708Z,18.50
2022-10-07T13:53:35.758Z,18.30
2022-10-07T13:56:41.956Z,18.70
2022-10-07T13:59:38.947Z,18.80
2022-10-07T14:02:40.036Z,18.80
2022-10-07T14:05:51.850Z,18.90
2022-10-07T14:08:51.852Z,18.80
2022-10-07T14:11:56.543Z,18.80
2022-10-07T14:15:00.521Z,18.90
2022-10-07T14:18:04.795Z,18.40
2022-10-07T14:21:17.176Z,18.00
2022-10-07T14:24:20.399Z,18.10
2022-10-07T14:27:54.635Z,17.90
2022-10-07T14:31:27.943Z,17.80
2022-10-07T14:34:43.511Z,17.70
2022-10-07T14:37:40.622Z,17.60
2022-10-07T14:40:37.678Z,17.80
2022-10-07T14:43:36.635Z,17.40
2022-10-07T14:46:34.015Z,17.50
2022-10-07T14:49:31.658Z,17.50
2022-10-07T14:52:44.283Z,17.20
2022-10-07T14:55:41.593Z,17.20
2022-10-07T14:58:38.414Z,17.10
2022-10-07T15:01:35.257Z,17.00
2022-10-07T15:04:32.134Z,16.80
2022-10-07T15:07:30.957Z,16.60
2022-10-07T15:10:27.974Z,16.40
2022-10-07T15:13:24.832Z,16.40
2022-10-07T15:16:26.556Z,16.40
2022-10-07T15:19:23.542Z,16.60
2022-10-07T15:22:20.356Z,16.70
2022-10-07T15:25:18.009Z,16.50
2022-10-07T15:28:15.415Z,16.00
2022-10-07T15:31:12.323Z,16.00
2022-10-07T15:34:10.425Z,15.90
2022-10-07T15:37:09.139Z,15.60
2022-10-07T15:40:07.564Z,15.40
2022-10-07T15:43:04.393Z,15.20
2022-10-07T15:46:01.749Z,15.20
2022-10-07T15:48:59.796Z,15.10
2022-10-07T15:51:56.619Z,14.90
2022-10-07T15:54:54.205Z,14.70
2022-10-07T15:57:51.015Z,14.50
2022-10-07T16:01:00.806Z,14.40
2022-10-07T16:03:59.842Z,14.40
2022-10-07T16:06:56.760Z,14.30
2022-10-07T16:09:53.567Z,14.50
2022-10-07T16:12:50.430Z,14.40
2022-10-07T16:16:02.114Z,14.20
2022-10-07T16:19:00.471Z,14.00
2022-10-07T16:21:57.325Z,14.10
2022-10-07T16:24:55.496Z,14.10
2022-10-07T16:28:10.665Z,14.00
2022-10-07T16:31:07.521Z,13.90
2022-10-07T16:34:04.715Z,13.80
2022-10-07T16:37:01.587Z,13.90
2022-10-07T16:39:58.532Z,13.60
2022-10-07T16:42:55.772Z,13.40
2022-10-07T16:45:52.586Z,13.30
2022-10-07T16:48:50.262Z,13.20
2022-10-07T16:51:47.103Z,13.10
2022-10-07T16:54:43.951Z,13.00
2022-10-07T16:57:40.885Z,12.90
2022-10-07T17:00:37.830Z,12.90
2022-10-07T17:03:35.859Z,12.70
2022-10-07T17:06:34.215Z,12.80
2022-10-07T17:09:31.032Z,12.70
2022-10-07T17:12:27.858Z,12.50
2022-10-07T17:15:24.837Z,12.40
2022-10-07T17:18:24.462Z,12.30
2022-10-07T17:21:22.053Z,12.30
2022-10-07T17:24:21.369Z,12.30
2022-10-07T17:27:19.323Z,12.20
2022-10-07T17:30:16.620Z,12.10
2022-10-07T17:33:18.010Z,12.10
2022-10-07T17:36:14.913Z,12.00
2022-10-07T17:39:12.232Z,11.90
2022-10-07T17:42:09.043Z,11.90
2022-10-07T17:45:06.881Z,11.80
2022-10-07T17:48:04.194Z,11.80
2022-10-07T17:51:05.165Z,11.80
2022-10-07T17:54:04.141Z,11.60
2022-10-07T17:57:01.049Z,11.50
2022-10-07T17:59:58.250Z,11.50
2022-10-07T18:02:55.155Z,11.40
2022-10-07T18:05:53.630Z,11.40
2022-10-07T18:08:51.198Z,11.30
2022-10-07T18:12:06.471Z,11.30
2022-10-07T18:15:19.598Z,11.30
2022-10-07T18:18:16.419Z,11.30
2022-10-07T18:21:14.011Z,11.30
2022-10-07T18:24:10.914Z,11.30
2022-10-07T18:27:08.044Z,11.20
2022-10-07T18:30:06.811Z,11.20
2022-10-07T18:33:03.687Z,11.20
2022-10-07T18:36:03.216Z,11.00
2022-10-07T18:39:00.025Z,11.00
2022-10-07T18:41:58.261Z,11.10
2022-10-07T18:44:55.170Z,10.90
2022-10-07T18:47:51.987Z,10.90
2022-10-07T18:50:52.051Z,10.90
2022-10-07T18:53:48.905Z,10.90
2022-10-07T18:56:50.210Z,10.70
2022-10-07T18:59:47.136Z,10.80
2022-10-07T19:02:46.034Z,10.80
2022-10-07T19:05:42.873Z,10.70
2022-10-07T19:08:40.738Z,10.70
2022-10-07T19:11:37.653Z,10.70
2022-10-07T19:14:34.956Z,10.60
2022-10-07T19:17:31.810Z,10.70
2022-10-07T19:20:28.607Z,10.60
2022-10-07T19:23:28.702Z,10.60
2022-10-07T19:26:29.043Z,10.60
2022-10-07T19:29:25.851Z,10.50
2022-10-07T19:32:23.066Z,10.50
2022-10-07T19:35:19.863Z,10.50
2022-10-07T19:38:16.677Z,10.50
2022-10-07T19:41:15.990Z,10.50
2022-10-07T19:44:13.186Z,10.40
2022-10-07T19:47:10.029Z,10.40
2022-10-07T19:50:07.528Z,10.30
2022-10-07T19:53:05.415Z,10.40
2022-10-07T19:56:14.601Z,10.30
2022-10-07T19:59:13.969Z,10.30
2022-10-07T20:02:11.914Z,10.30
2022-10-07T20:05:09.634Z,10.20
2022-10-07T20:08:10.033Z,10.30
2022-10-07T20:11:08.532Z,10.30
2022-10-07T20:14:06.559Z,10.30
2022-10-07T20:17:03.553Z,10.30
2022-10-07T20:20:00.396Z,10.20
2022-10-07T20:22:57.217Z,10.30
2022-10-07T20:25:54.145Z,10.30
2022-10-07T20:28:54.604Z,10.20
2022-10-07T20:31:52.354Z,10.20
2022-10-07T20:34:50.110Z,10.20
2022-10-07T20:37:46.941Z,10.10
2022-10-07T20:41:02.197Z,10.10
2022-10-07T20:43:59.050Z,10.10
2022-10-07T20:46:57.275Z,10.10
2022-10-07T20:49:56.588Z,10.10
2022-10-07T20:52:53.462Z,10.10
2022-10-07T20:55:50.280Z,10.00
2022-10-07T20:58:47.203Z,10.00
2022-10-07T21:01:44.383Z,10.00
2022-10-07T21:04:41.983Z,10.10
2022-10-07T21:07:39.665Z,10.10
2022-10-07T21:10:36.484Z,10.00
2022-10-07T21:13:33.489Z,10.10
2022-10-07T21:16:32.434Z,10.00
2022-10-07T21:19:31.758Z,10.00
2022-10-07T21:22:28.632Z,10.10
2022-10-07T21:25:25.504Z,10.00
2022-10-07T21:28:23.686Z,10.10
2022-10-07T21:31:22.055Z,10.10
2022-10-07T21:34:19.012Z,10.10
2022-10-07T21:37:15.878Z,10.10
2022-10-07T21:40:12.682Z,10.10
2022-10-07T21:43:09.474Z,10.10
2022-10-07T21:46:06.436Z,10.10
2022-10-07T21:49:05.995Z,10.10
2022-10-07T21:52:02.814Z,10.20
2022-10-07T21:55:00.152Z,10.10
2022-10-07T21:57:56.997Z,10.00
2022-10-07T22:00:53.837Z,10.00
2022-10-07T22:03:56.498Z,10.00
2022-10-07T22:07:11.935Z,10.00
2022-10-07T22:10:09.476Z,10.10
2022-10-07T22:13:06.290Z,10.00
2022-10-07T22:16:07.052Z,10.00
2022-10-07T22:19:05.140Z,10.00
2022-10-07T22:22:01.948Z,10.00
2022-10-07T22:24:58.752Z,10.00
2022-10-07T22:27:55.572Z,10.00
2022-10-07T22:30:52.422Z,9.90
2022-10-07T22:34:00.503Z,9.90
2022-10-07T22:36:58.114Z,10.00
2022-10-07T22:39:55.025Z,10.00
2022-10-07T22:42:52.020Z,10.00
2022-10-07T22:45:59.566Z,10.00
2022-10-07T22:48:58.107Z,9.90
2022-10-07T22:51:55.525Z,10.00
2022-10-07T22:54:52.692Z,10.10
2022-10-07T22:57:51.108Z,10.20
2022-10-07T23:00:50.548Z,10.20
2022-10-07T23:03:47.562Z,10.00
2022-10-07T23:06:44.432Z,10.00
2022-10-07T23:09:41.251Z,9.90
2022-10-07T23:12:38.063Z,9.90
2022-10-07T23:15:35.340Z,10.10
2022-10-07T23:18:32.945Z,10.10
2022-10-07T23:21:34.618Z,10.10
2022-10-07T23:24:31.670Z,10.10
2022-10-07T23:27:28.459Z,10.20
2022-10-07T23:30:25.305Z,10.20
2022-10-07T23:33:22.108Z,10.20
2022-10-07T23:36:20.769Z,10.30
2022-10-07T23:39:17.978Z,10.30
2022-10-07T23:42:14.791Z,10.30
2022-10-07T23:45:11.603Z,10.30
2022-10-07T23:48:08.520Z,10.30
2022-10-07T23:51:06.871Z,10.30
2022-10-07T23:54:04.530Z,10.20
2022-10-07T23:57:01.354Z,10.20
2022-10-07T23:59:58.194Z,10.30
